Etusivu
METAR-TAF:

METAR-TAF

Lentoasemat :

Saint-Louis, Senegal

Leveyspiiri: 16-03N, Pituuspiiri: 016-27W, korkeus merenpinnasta: 4 m

Tämänhetkinen sää

Tämä raportti tehtiin 1 tunti ja 5 minuuttia sitten, kello 22.00 UTC
Tuuli 6 kn pohjoisesta, vaihdellen luoteen ja koillisen välillä
Lämpötila 27°C
Kosteus 39%
Ilmanpaine 1011 hPa
Näkyvyys: 8000 m

METAR: GOSS 162200Z 36006KT 310V050 8000 NSC 27/12 Q1011

Aika: 23:05 (23:05 UTC)

Sääennuste

Tämä raportti tehtiin 6 tuntia ja 5 minuuttia sitten, kello 17.00 UTC
Ennuste voimassa 16. päivästä klo 18 UTC - 17. päivään klo 18 UTC
Tuuli 8 kn pohjoisesta
Näkyvyys: 6000 m

TAF: GOSS 161700Z 1618/1718 36008KT 6000 NSC

Säähavainnot ja -ennusteet yli 4000 lentoasemalta (METAR- ja TAF-raportit).

Käytössä olevat sääasemat on merkitty karttaan keltaisilla ja punaisilla pisteillä.

Aseta hiiri pisteen päälle nähdäksesi sääaseman nimen.

Klikkaa sitten nähdäksesi säähavainnot ja -ennusteet.

Kartan vaihtaminen: klikkaa mustalla rastilla varustettuja vihreitä pisteitä, niin voit zoomata sisään; viivalla varustettua vihreää pistettä, niin voit zoomata ulos tai vihreitä nuolia, niin pääset viereisille kartoille.


METAR-TAF: